Time;durP1;ratioP1;P1;durP2;ratioP2;P2;SDS_P1;SDS_P2;PMS_P1;PMS_P2;Temp;Humidity;BMP_temperature;BMP_pressure;BME280_temperature;BME280_humidity;BME280_pressure;Samples;Min_cycle;Max_cycle;Signal;HPM_P1;HPM_P2
2021/01/23 00:01:17;;;;;;;17.37;11.00;;;2.70;99.90;;;;;;5056057;28;20176;-88
2021/01/23 00:03:43;;;;;;;18.60;10.70;;;2.70;99.90;;;;;;5056708;28;20211;-87
2021/01/23 00:06:08;;;;;;;22.43;12.23;;;2.70;99.90;;;;;;5038709;28;20512;-87
2021/01/23 00:08:34;;;;;;;15.23;9.93;;;2.70;99.90;;;;;;5038014;28;20183;-86
2021/01/23 00:11:00;;;;;;;18.70;11.17;;;2.70;99.90;;;;;;5038115;28;20773;-87
2021/01/23 00:13:25;;;;;;;17.83;11.30;;;2.70;99.90;;;;;;5055440;28;20178;-87
2021/01/23 00:15:51;;;;;;;16.33;10.53;;;2.70;99.90;;;;;;5035949;28;20200;-88
2021/01/23 00:18:16;;;;;;;17.43;10.33;;;2.60;99.90;;;;;;5054908;28;20177;-87
2021/01/23 00:20:42;;;;;;;16.20;11.77;;;2.60;99.90;;;;;;5039305;28;20189;-88
2021/01/23 00:23:08;;;;;;;19.30;11.40;;;2.60;99.90;;;;;;5037085;28;20734;-86
2021/01/23 00:25:34;;;;;;;16.00;11.50;;;2.60;99.90;;;;;;5054783;28;20174;-86
2021/01/23 00:28:00;;;;;;;16.67;11.47;;;2.50;99.90;;;;;;5036721;28;20214;-85
2021/01/23 00:30:25;;;;;;;13.83;10.57;;;2.50;99.90;;;;;;5037127;28;20506;-86
2021/01/23 00:32:51;;;;;;;17.53;10.93;;;2.50;99.90;;;;;;5037504;28;20179;-86
2021/01/23 00:35:16;;;;;;;14.77;10.73;;;2.40;99.90;;;;;;5033626;28;20173;-87
2021/01/23 00:37:43;;;;;;;15.53;9.50;;;2.40;99.90;;;;;;5055064;28;20541;-86
2021/01/23 00:40:09;;;;;;;20.93;11.60;;;2.30;99.90;;;;;;5035548;28;20236;-87
2021/01/23 00:42:35;;;;;;;24.90;11.73;;;2.30;99.90;;;;;;5051564;28;20445;-87
2021/01/23 00:45:00;;;;;;;20.63;10.60;;;2.30;99.90;;;;;;5037175;28;20790;-88
2021/01/23 00:47:26;;;;;;;20.97;12.50;;;2.20;99.90;;;;;;5034706;28;20229;-86
2021/01/23 00:49:51;;;;;;;13.73;10.33;;;2.20;99.90;;;;;;5053330;28;20195;-85
2021/01/23 00:52:17;;;;;;;20.03;12.90;;;2.20;99.90;;;;;;5033371;28;20171;-86
2021/01/23 00:54:43;;;;;;;22.70;13.17;;;2.10;99.90;;;;;;5036269;28;20385;-85
2021/01/23 00:57:08;;;;;;;17.33;12.00;;;2.10;99.90;;;;;;5036466;28;20527;-86
2021/01/23 00:59:34;;;;;;;13.77;10.70;;;2.10;99.90;;;;;;5054472;28;20512;-87
2021/01/23 01:02:00;;;;;;;16.60;12.00;;;2.10;99.90;;;;;;5054266;28;20436;-86
2021/01/23 01:04:25;;;;;;;18.10;10.50;;;2.10;99.90;;;;;;5054186;28;20591;-86
2021/01/23 01:06:51;;;;;;;13.07;9.93;;;2.10;99.90;;;;;;5036072;28;20557;-87
2021/01/23 01:09:17;;;;;;;23.23;12.07;;;2.00;99.90;;;;;;5035117;28;20231;-86
2021/01/23 01:11:42;;;;;;;18.80;12.13;;;2.00;99.90;;;;;;5033789;28;20629;-86
2021/01/23 01:14:08;;;;;;;20.50;11.10;;;2.00;99.90;;;;;;5035717;28;20189;-86
2021/01/23 01:16:34;;;;;;;19.33;10.77;;;2.00;99.90;;;;;;5036204;28;20206;-87
2021/01/23 01:18:59;;;;;;;19.37;11.47;;;2.00;99.90;;;;;;5036498;28;20652;-87
2021/01/23 01:21:25;;;;;;;18.60;12.73;;;1.90;99.90;;;;;;5036679;28;20201;-87
2021/01/23 01:23:50;;;;;;;15.90;11.50;;;1.90;99.90;;;;;;5052852;28;20241;-88
2021/01/23 01:26:16;;;;;;;18.60;11.27;;;1.90;99.90;;;;;;5035697;28;20199;-86
2021/01/23 01:28:41;;;;;;;18.30;11.97;;;1.80;99.90;;;;;;5036455;28;20265;-86
2021/01/23 01:31:07;;;;;;;16.20;11.23;;;1.90;99.90;;;;;;5044647;28;20178;-88
2021/01/23 01:33:33;;;;;;;22.43;12.63;;;1.80;99.90;;;;;;5035105;28;20180;-86
2021/01/23 01:35:58;;;;;;;15.83;11.83;;;1.80;99.90;;;;;;5051836;28;20172;-87
2021/01/23 01:38:25;;;;;;;15.40;11.13;;;1.90;99.90;;;;;;5053179;28;20179;-87
2021/01/23 01:40:51;;;;;;;19.67;12.30;;;1.80;99.90;;;;;;5035603;28;20225;-88
2021/01/23 01:43:17;;;;;;;19.23;12.50;;;1.80;99.90;;;;;;5035696;28;20501;-87
2021/01/23 01:45:43;;;;;;;16.43;10.83;;;1.80;99.90;;;;;;5035666;28;20513;-87
2021/01/23 01:48:10;;;;;;;22.40;12.37;;;1.80;99.90;;;;;;5034894;28;20504;-87
2021/01/23 01:50:36;;;;;;;18.83;12.60;;;1.80;99.90;;;;;;5035158;28;20273;-87
2021/01/23 01:53:02;;;;;;;16.23;11.37;;;1.90;99.90;;;;;;5052365;28;20426;-86
2021/01/23 01:55:33;;;;;;;22.27;11.67;;;1.90;99.90;;;;;;5034737;28;20649;-87
2021/01/23 01:57:59;;;;;;;14.53;10.80;;;1.90;99.90;;;;;;5032914;28;20218;-87
2021/01/23 02:00:24;;;;;;;22.40;13.00;;;1.90;99.90;;;;;;5048849;28;20424;-86
2021/01/23 02:03:47;;;;;;;26.50;13.73;;;1.90;99.90;;;;;;5052633;28;20406;-86
2021/01/23 02:06:47;;;;;;;20.90;13.23;;;1.90;99.90;;;;;;4969227;28;20179;-86
2021/01/23 02:09:17;;;;;;;21.70;12.37;;;1.90;99.90;;;;;;4966842;28;20452;-87
2021/01/23 02:11:48;;;;;;;22.67;12.33;;;1.90;99.90;;;;;;5025591;28;20418;-86
2021/01/23 02:14:18;;;;;;;22.07;12.97;;;1.90;99.90;;;;;;5033061;28;20779;-89
2021/01/23 02:16:47;;;;;;;20.57;13.83;;;1.90;99.90;;;;;;5053203;28;20442;-88
2021/01/23 02:19:54;;;;;;;22.00;12.70;;;2.00;99.90;;;;;;5051935;28;20418;-88
2021/01/23 02:22:26;;;;;;;22.50;11.87;;;2.10;99.90;;;;;;5024275;28;20421;-85
2021/01/23 02:24:52;;;;;;;22.77;14.93;;;2.10;99.90;;;;;;5052901;28;20483;-86
2021/01/23 02:27:45;;;;;;;26.20;15.20;;;2.10;99.90;;;;;;5052677;28;20524;-86
2021/01/23 02:30:28;;;;;;;21.87;14.93;;;2.20;99.90;;;;;;5024694;28;20421;-86
2021/01/23 02:32:56;;;;;;;30.07;15.47;;;2.10;99.90;;;;;;5032559;28;20431;-88
2021/01/23 02:35:24;;;;;;;21.13;13.30;;;2.10;99.90;;;;;;5052666;28;20777;-88
2021/01/23 02:37:51;;;;;;;21.03;15.47;;;2.10;99.90;;;;;;5052202;28;20421;-88
2021/01/23 02:40:18;;;;;;;22.23;14.70;;;2.10;99.90;;;;;;5034986;28;20943;-89
2021/01/23 02:42:46;;;;;;;21.07;14.70;;;2.10;99.90;;;;;;5033917;28;20421;-86
2021/01/23 02:45:12;;;;;;;21.20;13.90;;;2.10;99.90;;;;;;5052170;28;20413;-89
2021/01/23 02:47:38;;;;;;;21.30;13.87;;;2.10;99.90;;;;;;5033492;28;20471;-87
2021/01/23 02:50:05;;;;;;;24.17;15.10;;;2.10;99.90;;;;;;5053735;28;20246;-88
2021/01/23 02:53:03;;;;;;;20.73;14.10;;;2.10;99.90;;;;;;5038100;28;20476;-87
2021/01/23 02:55:33;;;;;;;24.83;13.53;;;2.10;99.90;;;;;;5048113;28;20417;-86
2021/01/23 02:58:04;;;;;;;28.43;14.10;;;2.10;99.90;;;;;;5038833;28;20418;-87
2021/01/23 03:00:31;;;;;;;23.23;13.77;;;2.20;99.90;;;;;;5052896;28;20812;-89
2021/01/23 03:02:59;;;;;;;19.00;12.80;;;2.20;99.90;;;;;;5035040;28;21054;-91
2021/01/23 03:05:26;;;;;;;24.63;11.57;;;2.20;99.90;;;;;;5034735;28;20425;-86
2021/01/23 03:07:56;;;;;;;23.07;14.10;;;2.20;99.90;;;;;;5034403;28;20487;-89
2021/01/23 03:10:39;;;;;;;20.87;13.50;;;2.20;99.90;;;;;;5034768;28;20459;-87
2021/01/23 03:13:06;;;;;;;22.90;14.00;;;2.30;99.90;;;;;;5034897;28;20446;-86
2021/01/23 03:15:32;;;;;;;27.07;14.20;;;2.30;99.90;;;;;;5052636;28;20409;-86
2021/01/23 03:17:58;;;;;;;23.37;14.43;;;2.30;99.90;;;;;;5034693;28;20438;-87
2021/01/23 03:20:26;;;;;;;19.77;15.00;;;2.30;99.90;;;;;;5034299;28;20431;-86
2021/01/23 03:22:52;;;;;;;22.73;13.90;;;2.30;99.90;;;;;;5034078;28;20447;-86
2021/01/23 03:25:17;;;;;;;18.00;13.13;;;2.20;99.90;;;;;;5052010;28;20757;-86
2021/01/23 03:27:43;;;;;;;22.30;13.13;;;2.20;99.90;;;;;;5034323;28;20483;-86
2021/01/23 03:30:10;;;;;;;17.57;12.03;;;2.20;99.90;;;;;;5034395;28;20172;-86
2021/01/23 03:32:36;;;;;;;18.13;12.33;;;2.20;99.90;;;;;;5055053;28;20189;-86
2021/01/23 03:35:04;;;;;;;19.83;12.23;;;2.20;99.90;;;;;;5038607;28;20410;-86
2021/01/23 03:37:30;;;;;;;20.87;12.00;;;2.20;99.90;;;;;;5037941;28;20678;-86
2021/01/23 03:39:55;;;;;;;20.77;11.77;;;2.20;99.90;;;;;;5056304;28;20415;-86
2021/01/23 03:42:21;;;;;;;20.00;12.83;;;2.20;99.90;;;;;;5055182;28;20589;-86
2021/01/23 03:44:46;;;;;;;20.40;13.33;;;2.20;99.90;;;;;;5038449;28;20180;-87
2021/01/23 03:47:12;;;;;;;28.30;14.93;;;2.20;99.90;;;;;;5038323;28;20703;-86
2021/01/23 03:49:37;;;;;;;22.07;12.57;;;2.20;99.90;;;;;;5038410;28;20528;-87
2021/01/23 03:52:04;;;;;;;25.20;12.60;;;2.20;99.90;;;;;;5055891;28;20206;-88
2021/01/23 03:54:29;;;;;;;20.60;12.73;;;2.20;99.90;;;;;;5038086;28;20545;-86
2021/01/23 03:56:55;;;;;;;26.67;13.40;;;2.20;99.90;;;;;;5056131;28;20421;-86
2021/01/23 03:59:20;;;;;;;21.33;12.80;;;2.20;99.90;;;;;;5038288;28;20512;-86
2021/01/23 04:01:46;;;;;;;21.73;13.93;;;2.10;99.90;;;;;;5056160;28;20187;-87
2021/01/23 04:04:12;;;;;;;22.43;14.37;;;2.10;99.90;;;;;;5056111;28;20210;-86
2021/01/23 04:06:37;;;;;;;25.30;14.03;;;2.10;99.90;;;;;;5038153;28;20203;-86
2021/01/23 04:09:03;;;;;;;29.27;13.90;;;2.10;99.90;;;;;;5056244;28;20235;-87
2021/01/23 04:11:28;;;;;;;21.03;12.77;;;2.10;99.90;;;;;;5055029;28;20173;-86
2021/01/23 04:13:54;;;;;;;22.97;13.20;;;2.10;99.90;;;;;;5056159;28;20492;-86
2021/01/23 04:16:20;;;;;;;27.40;14.33;;;2.10;99.90;;;;;;5056256;28;20171;-87
2021/01/23 04:18:46;;;;;;;23.10;13.60;;;2.10;99.90;;;;;;5056451;28;20178;-87
2021/01/23 04:21:11;;;;;;;21.70;13.70;;;2.10;99.90;;;;;;5054870;28;20177;-87
2021/01/23 04:23:39;;;;;;;18.33;12.50;;;2.10;99.90;;;;;;5056464;28;20931;-86
2021/01/23 04:26:05;;;;;;;24.67;16.30;;;2.20;99.90;;;;;;5055104;28;20211;-86
2021/01/23 04:28:31;;;;;;;21.97;13.57;;;2.20;99.90;;;;;;5056369;28;20431;-86
2021/01/23 04:30:56;;;;;;;18.37;13.37;;;2.20;99.90;;;;;;5055989;28;20406;-86
2021/01/23 04:33:22;;;;;;;24.57;14.90;;;2.20;99.90;;;;;;5056002;28;20209;-86
2021/01/23 04:35:47;;;;;;;26.20;15.03;;;2.20;99.90;;;;;;5054390;28;20200;-86
2021/01/23 04:38:13;;;;;;;24.30;15.40;;;2.20;99.90;;;;;;5055685;28;20183;-85
2021/01/23 04:40:38;;;;;;;22.87;14.27;;;2.20;99.90;;;;;;5054602;28;20183;-87
2021/01/23 04:43:04;;;;;;;25.83;14.67;;;2.20;99.90;;;;;;5054429;28;20178;-85
2021/01/23 04:45:30;;;;;;;32.43;15.87;;;2.10;99.90;;;;;;5055547;28;20179;-86
2021/01/23 04:47:56;;;;;;;24.40;16.70;;;2.10;99.90;;;;;;5054175;28;20271;-86
2021/01/23 04:50:21;;;;;;;24.03;15.63;;;2.10;99.90;;;;;;5055525;28;20183;-85
2021/01/23 04:52:47;;;;;;;25.80;15.20;;;2.10;99.90;;;;;;5037302;28;20922;-87
2021/01/23 04:55:13;;;;;;;27.07;14.77;;;2.10;99.90;;;;;;5054207;28;20633;-85
2021/01/23 04:57:41;;;;;;;24.07;15.77;;;2.10;99.90;;;;;;5054117;28;20183;-85
2021/01/23 05:00:08;;;;;;;24.93;15.00;;;2.00;99.90;;;;;;5055343;28;20186;-86
2021/01/23 05:02:34;;;;;;;23.63;16.37;;;2.10;99.90;;;;;;5037465;28;20443;-85
2021/01/23 05:05:01;;;;;;;25.53;15.70;;;2.00;99.90;;;;;;5055278;28;20438;-85
2021/01/23 05:07:30;;;;;;;19.70;14.73;;;2.10;99.90;;;;;;5054998;28;20536;-85
2021/01/23 05:09:57;;;;;;;33.07;17.43;;;2.10;99.90;;;;;;5037082;28;20565;-86
2021/01/23 05:12:46;;;;;;;22.90;15.13;;;2.10;99.90;;;;;;5037310;28;20422;-85
2021/01/23 05:15:32;;;;;;;22.77;14.40;;;2.10;99.90;;;;;;5053784;28;20428;-85
2021/01/23 05:18:01;;;;;;;26.20;14.17;;;2.00;99.90;;;;;;5037029;28;20422;-85
2021/01/23 05:20:35;;;;;;;26.10;14.50;;;2.00;99.90;;;;;;5054894;28;20416;-86
2021/01/23 05:23:22;;;;;;;30.63;15.30;;;2.00;99.90;;;;;;5055511;28;20972;-87
2021/01/23 05:25:58;;;;;;;26.33;14.00;;;2.00;99.90;;;;;;5036849;28;20429;-86
2021/01/23 05:28:36;;;;;;;22.07;14.83;;;2.00;99.90;;;;;;5054064;28;20475;-86
2021/01/23 05:31:03;;;;;;;32.40;17.00;;;2.00;99.90;;;;;;5037376;28;20418;-87
2021/01/23 05:33:31;;;;;;;23.27;16.47;;;2.00;99.90;;;;;;5059210;28;20493;-88
2021/01/23 05:35:57;;;;;;;29.60;17.60;;;2.00;99.90;;;;;;5041882;28;20454;-87
2021/01/23 05:38:33;;;;;;;23.00;15.10;;;2.00;99.90;;;;;;5042368;28;20430;-88
2021/01/23 05:41:08;;;;;;;26.73;15.73;;;2.10;99.90;;;;;;5059967;28;20186;-88
2021/01/23 05:43:43;;;;;;;22.10;14.77;;;2.10;99.90;;;;;;5056699;28;20509;-88
2021/01/23 05:46:13;;;;;;;28.20;16.17;;;2.00;99.90;;;;;;5036278;28;20774;-86
2021/01/23 05:48:43;;;;;;;28.97;16.13;;;2.00;99.90;;;;;;5036086;28;20418;-86
2021/01/23 05:51:09;;;;;;;24.17;15.87;;;2.00;99.90;;;;;;5035685;28;20410;-86
2021/01/23 05:53:35;;;;;;;29.70;14.90;;;2.00;99.90;;;;;;5053807;28;20422;-86
2021/01/23 05:56:02;;;;;;;27.00;17.00;;;1.90;99.90;;;;;;5044870;28;20456;-86
2021/01/23 05:58:29;;;;;;;40.37;17.70;;;1.90;99.90;;;;;;5036192;28;20586;-87
2021/01/23 06:00:56;;;;;;;26.00;17.00;;;2.00;99.90;;;;;;5053889;28;20493;-86
2021/01/23 06:03:23;;;;;;;30.90;17.63;;;2.00;99.90;;;;;;5053580;28;20416;-87
2021/01/23 06:05:53;;;;;;;24.63;15.67;;;2.00;99.90;;;;;;5035134;28;20449;-87
2021/01/23 06:08:39;;;;;;;23.37;15.13;;;2.00;99.90;;;;;;5035574;28;20503;-86
2021/01/23 06:11:06;;;;;;;29.07;17.13;;;1.90;99.90;;;;;;5035563;28;20465;-87
2021/01/23 06:13:37;;;;;;;24.27;15.00;;;2.00;99.90;;;;;;5035797;28;20418;-86
2021/01/23 06:16:03;;;;;;;25.63;16.23;;;2.00;99.90;;;;;;5053546;28;20424;-87
2021/01/23 06:18:30;;;;;;;27.80;15.30;;;2.00;99.90;;;;;;5053524;28;20407;-87
2021/01/23 06:21:00;;;;;;;25.93;13.87;;;2.00;99.90;;;;;;5035224;28;20434;-86
2021/01/23 06:23:50;;;;;;;30.00;16.47;;;1.90;99.90;;;;;;5035498;28;20459;-86
2021/01/23 06:26:16;;;;;;;30.60;17.83;;;1.90;99.90;;;;;;5053420;28;20419;-87
2021/01/23 06:28:42;;;;;;;28.23;17.27;;;1.90;99.90;;;;;;5035588;28;20932;-86
2021/01/23 06:31:37;;;;;;;29.63;17.27;;;1.90;99.90;;;;;;5053734;28;20497;-87
2021/01/23 06:34:24;;;;;;;32.20;17.47;;;1.90;99.90;;;;;;5027479;28;20191;-86
2021/01/23 06:37:10;;;;;;;28.43;17.17;;;1.90;99.90;;;;;;5035346;28;20469;-85
2021/01/23 06:39:55;;;;;;;39.83;19.23;;;1.90;99.90;;;;;;5035571;28;20431;-85
2021/01/23 06:42:21;;;;;;;32.73;17.70;;;1.90;99.90;;;;;;5052109;28;20802;-85
2021/01/23 06:44:47;;;;;;;38.40;17.10;;;1.80;99.90;;;;;;5035696;28;20929;-85
2021/01/23 06:47:12;;;;;;;38.77;17.27;;;1.80;99.90;;;;;;5053384;28;20460;-85
2021/01/23 06:49:42;;;;;;;31.03;19.13;;;1.80;99.90;;;;;;5035696;28;20228;-86
2021/01/23 06:52:07;;;;;;;33.80;18.30;;;1.80;99.90;;;;;;5035151;28;20172;-86
2021/01/23 06:54:35;;;;;;;32.93;18.03;;;1.70;99.90;;;;;;5053435;28;20418;-86
2021/01/23 06:57:02;;;;;;;34.63;18.87;;;1.80;99.90;;;;;;5053539;28;20167;-86
2021/01/23 06:59:30;;;;;;;32.53;19.30;;;1.70;99.90;;;;;;5053370;28;20409;-85
2021/01/23 07:01:58;;;;;;;32.13;16.50;;;1.70;99.90;;;;;;5035280;28;20409;-85
2021/01/23 07:04:29;;;;;;;39.40;19.97;;;1.70;99.90;;;;;;5035391;28;20421;-85
2021/01/23 07:06:56;;;;;;;30.07;17.60;;;1.70;99.90;;;;;;5051841;28;20462;-86
2021/01/23 07:09:44;;;;;;;29.37;18.27;;;1.70;99.90;;;;;;5052985;28;20463;-85
2021/01/23 07:12:10;;;;;;;36.20;18.20;;;1.70;99.90;;;;;;5035338;28;20814;-85
2021/01/23 07:14:36;;;;;;;29.37;18.33;;;1.70;99.90;;;;;;5052878;28;20405;-85
2021/01/23 07:17:01;;;;;;;37.93;19.60;;;1.70;99.90;;;;;;5034887;28;20520;-85
2021/01/23 07:19:27;;;;;;;31.40;18.20;;;1.70;99.90;;;;;;5035119;28;20173;-86
2021/01/23 07:21:53;;;;;;;35.07;18.20;;;1.70;99.90;;;;;;5052969;28;20266;-86
2021/01/23 07:24:19;;;;;;;31.93;17.90;;;1.70;99.90;;;;;;5053179;28;20249;-87
2021/01/23 07:26:45;;;;;;;31.00;17.70;;;1.70;99.90;;;;;;5051657;28;20575;-86
2021/01/23 07:29:11;;;;;;;31.70;17.07;;;1.70;99.90;;;;;;5035136;28;20429;-85
2021/01/23 07:31:36;;;;;;;34.57;18.73;;;1.70;99.90;;;;;;5035174;28;20173;-86
2021/01/23 07:34:11;;;;;;;31.07;19.20;;;1.70;99.90;;;;;;5034847;28;20192;-85
2021/01/23 07:36:42;;;;;;;30.70;18.03;;;1.60;99.90;;;;;;5034678;28;20199;-86
2021/01/23 07:39:18;;;;;;;33.77;18.97;;;1.70;99.90;;;;;;5052747;28;20422;-85
2021/01/23 07:41:49;;;;;;;32.83;18.50;;;1.70;99.90;;;;;;5052534;28;20471;-86
2021/01/23 07:44:16;;;;;;;36.17;18.67;;;1.70;99.90;;;;;;5034769;28;20456;-86
2021/01/23 07:46:43;;;;;;;33.13;17.50;;;1.70;99.90;;;;;;5034769;28;20474;-85
2021/01/23 07:49:20;;;;;;;28.60;18.40;;;1.70;99.90;;;;;;5034837;28;20489;-86
2021/01/23 07:51:46;;;;;;;30.50;17.30;;;1.70;99.90;;;;;;5034736;28;20797;-87
2021/01/23 07:54:13;;;;;;;30.47;15.97;;;1.80;99.90;;;;;;5034771;28;20441;-86
2021/01/23 07:56:58;;;;;;;34.13;17.83;;;1.80;99.90;;;;;;5034744;28;20538;-86
2021/01/23 07:59:46;;;;;;;42.07;19.97;;;1.80;99.90;;;;;;5052547;28;20429;-85
2021/01/23 08:02:12;;;;;;;38.67;18.00;;;1.80;99.90;;;;;;5034500;28;20432;-86
2021/01/23 08:04:40;;;;;;;44.10;19.00;;;1.90;99.90;;;;;;5034408;28;20417;-86
2021/01/23 08:07:24;;;;;;;33.27;19.50;;;2.00;99.90;;;;;;5033955;28;20802;-85
2021/01/23 08:10:19;;;;;;;35.23;17.77;;;2.00;99.90;;;;;;5031273;28;20554;-86
2021/01/23 08:12:51;;;;;;;31.63;18.57;;;2.00;99.90;;;;;;5014964;28;20477;-86
2021/01/23 08:15:26;;;;;;;30.40;17.80;;;2.00;99.90;;;;;;5031297;28;20424;-86
2021/01/23 08:17:52;;;;;;;30.73;18.77;;;2.00;99.90;;;;;;5016831;28;20429;-87
2021/01/23 08:20:37;;;;;;;27.00;17.00;;;2.00;99.90;;;;;;5019018;28;20422;-85
2021/01/23 08:23:07;;;;;;;34.17;19.77;;;2.10;99.90;;;;;;5018931;28;20437;-86
2021/01/23 08:25:45;;;;;;;31.37;16.73;;;2.10;99.90;;;;;;5018350;28;20439;-85
2021/01/23 08:28:11;;;;;;;36.83;18.63;;;2.00;99.90;;;;;;5034829;28;20520;-85
2021/01/23 08:30:38;;;;;;;40.57;20.43;;;2.00;99.90;;;;;;5034741;28;20506;-86
2021/01/23 08:33:08;;;;;;;42.97;21.80;;;2.00;99.90;;;;;;5036051;28;20927;-86
2021/01/23 08:35:36;;;;;;;39.70;20.90;;;2.00;99.90;;;;;;5034484;28;20426;-86
2021/01/23 08:38:02;;;;;;;41.00;18.77;;;2.10;99.90;;;;;;5035985;28;20406;-86
2021/01/23 08:40:27;;;;;;;41.50;20.03;;;2.10;99.90;;;;;;5034663;28;20501;-86
2021/01/23 08:42:53;;;;;;;32.47;19.00;;;2.10;99.90;;;;;;5018163;28;20188;-86
2021/01/23 08:45:22;;;;;;;36.40;21.10;;;2.20;99.90;;;;;;5035745;28;20222;-86
2021/01/23 08:47:47;;;;;;;37.00;19.13;;;2.20;99.90;;;;;;5034454;28;20294;-86
2021/01/23 08:50:14;;;;;;;34.50;21.07;;;2.20;99.90;;;;;;5017665;28;20852;-86
2021/01/23 08:52:39;;;;;;;29.57;18.63;;;2.30;99.90;;;;;;5034564;28;20211;-87
2021/01/23 08:55:05;;;;;;;31.57;19.00;;;2.30;99.90;;;;;;5035600;28;20412;-86
2021/01/23 08:57:31;;;;;;;36.63;21.20;;;2.30;99.90;;;;;;5017915;28;20645;-86
2021/01/23 08:59:57;;;;;;;41.07;20.27;;;2.30;99.90;;;;;;5035571;28;20487;-87
2021/01/23 09:02:23;;;;;;;35.23;19.17;;;2.30;99.90;;;;;;5017776;28;20935;-88
2021/01/23 09:04:48;;;;;;;32.17;18.40;;;2.40;99.90;;;;;;5017671;28;20182;-85
2021/01/23 09:07:14;;;;;;;38.73;23.33;;;2.50;99.90;;;;;;5018102;28;20552;-90
2021/01/23 09:09:40;;;;;;;34.77;19.43;;;2.60;99.90;;;;;;5039258;28;20224;-86
2021/01/23 09:12:06;;;;;;;37.80;21.43;;;2.60;99.90;;;;;;5037519;28;20256;-85
2021/01/23 09:14:32;;;;;;;35.33;19.47;;;2.70;99.90;;;;;;5034876;28;20607;-87
2021/01/23 09:16:58;;;;;;;38.07;19.13;;;2.70;99.90;;;;;;5035665;28;20417;-87
2021/01/23 09:19:23;;;;;;;41.13;18.90;;;2.70;99.90;;;;;;5034232;28;21172;-87
2021/01/23 09:21:49;;;;;;;36.73;19.37;;;2.80;99.90;;;;;;5034496;28;20180;-87
2021/01/23 09:24:15;;;;;;;42.60;20.80;;;2.90;99.90;;;;;;5034279;28;20253;-88
2021/01/23 09:26:42;;;;;;;36.33;20.27;;;3.00;99.90;;;;;;5035861;28;20193;-88
2021/01/23 09:29:08;;;;;;;34.80;18.03;;;3.10;99.90;;;;;;5033609;28;20421;-86
2021/01/23 09:31:33;;;;;;;35.43;19.30;;;3.20;99.90;;;;;;5033849;28;20825;-87
2021/01/23 09:33:59;;;;;;;40.03;21.90;;;3.30;99.90;;;;;;5035309;28;20417;-87
2021/01/23 09:36:26;;;;;;;34.10;19.60;;;3.40;99.90;;;;;;5034640;28;20435;-86
2021/01/23 09:38:52;;;;;;;34.47;21.70;;;3.50;99.90;;;;;;5045343;28;20180;-86
2021/01/23 09:41:18;;;;;;;30.00;19.50;;;3.60;99.90;;;;;;5036643;28;20823;-86
2021/01/23 09:43:43;;;;;;;31.70;17.50;;;3.70;99.90;;;;;;5035790;28;20518;-89
2021/01/23 09:46:09;;;;;;;31.17;19.03;;;3.80;99.90;;;;;;5052308;28;20453;-86
2021/01/23 09:48:34;;;;;;;28.70;19.70;;;3.80;99.90;;;;;;5036477;28;20224;-86
2021/01/23 09:51:00;;;;;;;34.27;21.23;;;3.80;99.90;;;;;;5053953;28;20196;-86
2021/01/23 09:53:26;;;;;;;31.77;20.20;;;3.90;99.90;;;;;;5038712;28;20183;-86
2021/01/23 09:55:51;;;;;;;36.10;19.63;;;4.30;99.90;;;;;;5033048;28;20170;-86
2021/01/23 09:58:17;;;;;;;36.57;19.67;;;4.60;99.90;;;;;;5034058;28;20536;-86
2021/01/23 10:00:43;;;;;;;34.50;20.43;;;;;;;;;;5033012;28;20183;-87
2021/01/23 10:03:10;;;;;;;30.97;19.50;;;;;;;;;;5038669;28;20181;-87
2021/01/23 10:05:36;;;;;;;30.77;16.27;;;;;;;;;;5052014;28;20477;-86
2021/01/23 10:08:02;;;;;;;29.90;18.30;;;;;;;;;;5054120;28;20501;-86
2021/01/23 10:10:28;;;;;;;26.70;18.23;;;;;;;;;;5033113;28;20503;-86
2021/01/23 10:12:54;;;;;;;24.63;15.63;;;;;;;;;;5034166;28;20451;-86
2021/01/23 10:15:21;;;;;;;27.77;17.70;;;;;;;;;;5032751;28;20764;-86
2021/01/23 10:17:47;;;;;;;27.27;18.03;;;;;;;;;;5032957;28;20754;-86
2021/01/23 10:20:13;;;;;;;27.00;17.87;;;;;;;;;;5032800;28;20500;-86
2021/01/23 10:22:39;;;;;;;25.83;17.10;;;;;;;;;;5033706;28;20505;-86
2021/01/23 10:25:05;;;;;;;28.93;19.43;;;;;;;;;;5033898;28;20479;-86
2021/01/23 10:27:31;;;;;;;27.37;18.90;;;;;;;;;;5033817;28;20984;-87
2021/01/23 10:29:57;;;;;;;28.73;17.73;;;;;;;;;;5029128;28;20430;-87
2021/01/23 10:32:24;;;;;;;28.10;16.63;;;;;;;;;;5043266;28;20421;-87
2021/01/23 10:34:50;;;;;;;30.57;18.33;;;;;;;;;;5034497;28;20456;-87
2021/01/23 10:37:16;;;;;;;28.03;18.03;;;;;;;;;;5035712;28;20420;-88
2021/01/23 10:39:42;;;;;;;26.13;16.20;;;;;;;;;;5018272;28;20429;-87
2021/01/23 10:42:08;;;;;;;30.63;18.73;;;;;;;;;;5034966;28;20451;-88
2021/01/23 10:44:39;;;;;;;30.43;15.93;;;7.00;99.90;;;;;;5035931;28;20948;-87
2021/01/23 10:47:06;;;;;;;25.97;16.40;;;7.20;99.90;;;;;;5035460;28;20540;-88
2021/01/23 10:49:32;;;;;;;25.13;18.20;;;7.10;99.90;;;;;;5037733;28;20467;-87
2021/01/23 10:51:58;;;;;;;31.20;18.90;;;7.00;99.90;;;;;;5036389;28;20782;-87
2021/01/23 10:54:24;;;;;;;29.20;18.00;;;6.80;99.90;;;;;;5035880;28;20699;-87
2021/01/23 10:56:51;;;;;;;28.40;17.30;;;6.80;99.90;;;;;;5018441;28;20448;-87
2021/01/23 10:59:16;;;;;;;25.53;18.50;;;6.80;99.90;;;;;;5032412;28;20189;-88
2021/01/23 11:01:42;;;;;;;31.03;18.50;;;6.60;99.90;;;;;;5033977;28;20417;-89
2021/01/23 11:04:07;;;;;;;28.30;18.97;;;6.60;99.90;;;;;;5033689;28;20187;-87
2021/01/23 11:06:33;;;;;;;31.17;18.40;;;6.30;99.90;;;;;;5012125;28;20218;-86
2021/01/23 11:08:58;;;;;;;26.73;17.00;;;6.20;99.90;;;;;;5017153;28;20175;-86
2021/01/23 11:11:24;;;;;;;26.50;16.90;;;6.10;99.90;;;;;;5017516;28;20256;-87
2021/01/23 11:13:50;;;;;;;33.63;19.20;;;6.30;99.90;;;;;;5035438;28;20611;-87
2021/01/23 11:16:16;;;;;;;32.90;18.67;;;6.70;99.90;;;;;;5018048;28;20182;-87
2021/01/23 11:18:42;;;;;;;24.23;15.80;;;7.10;99.90;;;;;;5035028;28;20611;-88
2021/01/23 11:21:13;;;;;;;29.43;19.20;;;7.50;99.90;;;;;;5015736;28;20504;-87
2021/01/23 11:23:38;;;;;;;26.53;16.33;;;8.00;99.90;;;;;;5016231;28;20178;-87
2021/01/23 11:26:04;;;;;;;27.33;17.73;;;8.30;99.90;;;;;;5032438;28;20429;-88
2021/01/23 11:28:29;;;;;;;24.93;16.20;;;8.60;99.90;;;;;;5033707;28;20210;-88
2021/01/23 11:30:55;;;;;;;30.67;16.70;;;8.80;99.90;;;;;;5012500;28;20176;-87
2021/01/23 11:33:24;;;;;;;21.63;15.53;;;9.00;99.90;;;;;;5015403;28;20172;-89
2021/01/23 11:35:49;;;;;;;20.77;15.60;;;9.20;99.90;;;;;;5017052;28;20178;-89
2021/01/23 11:38:15;;;;;;;23.13;16.40;;;9.20;99.90;;;;;;5016281;28;20436;-87
2021/01/23 11:40:42;;;;;;;21.77;15.13;;;9.20;99.90;;;;;;5032948;28;20188;-87
2021/01/23 11:43:10;;;;;;;21.57;15.83;;;9.30;99.90;;;;;;5017828;28;20180;-86
2021/01/23 11:45:36;;;;;;;20.70;14.07;;;9.20;99.90;;;;;;5018526;28;20420;-87
2021/01/23 11:48:02;;;;;;;22.73;13.93;;;9.10;99.90;;;;;;5034585;28;20484;-87
2021/01/23 11:50:27;;;;;;;19.13;13.47;;;9.10;99.90;;;;;;5015244;28;20182;-88
2021/01/23 11:52:53;;;;;;;18.30;13.60;;;9.10;99.90;;;;;;5022746;28;20222;-85
2021/01/23 11:55:18;;;;;;;24.57;15.80;;;8.90;99.90;;;;;;5018787;28;20210;-87
2021/01/23 11:57:53;;;;;;;19.13;14.30;;;8.50;99.90;;;;;;5019306;28;20650;-87
2021/01/23 12:00:19;;;;;;;19.70;13.77;;;8.30;99.90;;;;;;5019186;28;20247;-87
2021/01/23 12:02:45;;;;;;;24.77;14.87;;;7.90;99.90;;;;;;5019227;28;20459;-87
2021/01/23 12:05:18;;;;;;;20.90;14.13;;;7.70;99.90;;;;;;5018232;28;20424;-88
2021/01/23 12:07:44;;;;;;;19.80;13.67;;;7.60;99.90;;;;;;5036757;28;20530;-87
2021/01/23 12:10:10;;;;;;;22.70;14.80;;;7.40;99.90;;;;;;5028149;28;20460;-87
2021/01/23 12:12:36;;;;;;;17.50;13.07;;;7.30;99.90;;;;;;5037094;28;20507;-86
2021/01/23 12:15:03;;;;;;;20.83;13.97;;;7.20;99.90;;;;;;5037337;28;20849;-87
2021/01/23 12:17:28;;;;;;;27.90;15.13;;;7.00;99.90;;;;;;5034538;28;20182;-88
2021/01/23 12:19:55;;;;;;;21.80;14.10;;;7.10;99.90;;;;;;5034979;28;20420;-87
2021/01/23 12:22:21;;;;;;;22.70;14.03;;;7.30;99.90;;;;;;5036402;28;20224;-87
2021/01/23 12:24:46;;;;;;;22.30;15.10;;;7.20;99.90;;;;;;5035008;28;20426;-87
2021/01/23 12:27:12;;;;;;;18.43;12.57;;;7.20;99.90;;;;;;5035090;28;20202;-88
2021/01/23 12:29:38;;;;;;;20.27;13.00;;;7.20;99.90;;;;;;5034395;28;20272;-87
2021/01/23 12:32:06;;;;;;;18.70;13.63;;;7.10;99.90;;;;;;5034851;28;20456;-88
2021/01/23 12:34:32;;;;;;;20.00;12.77;;;7.10;99.90;;;;;;5023639;28;20175;-87
2021/01/23 12:36:58;;;;;;;23.23;11.97;;;7.10;99.90;;;;;;5014994;28;20416;-88
2021/01/23 12:39:23;;;;;;;18.87;11.90;;;7.10;99.90;;;;;;5024644;28;20171;-87
2021/01/23 12:41:50;;;;;;;20.00;12.80;;;7.10;99.90;;;;;;5034941;28;20672;-87
2021/01/23 12:44:16;;;;;;;16.80;12.07;;;7.10;99.90;;;;;;5034801;28;20257;-88
2021/01/23 12:46:41;;;;;;;16.70;10.93;;;7.20;99.90;;;;;;5037008;28;20507;-87
2021/01/23 12:49:07;;;;;;;13.90;11.27;;;7.20;99.90;;;;;;5035797;28;20179;-88